createdAt,value
2022-08-18T00:00:21.883Z,6.14
2022-08-18T00:01:25.094Z,6.00
2022-08-18T00:02:30.120Z,6.00
2022-08-18T00:03:55.424Z,6.50
2022-08-18T00:04:36.963Z,7.00
2022-08-18T00:05:41.131Z,6.25
2022-08-18T00:06:45.681Z,7.00
2022-08-18T00:07:48.769Z,7.29
2022-08-18T00:08:52.341Z,8.43
2022-08-18T00:09:56.240Z,8.50
2022-08-18T00:10:59.432Z,8.00
2022-08-18T00:12:02.614Z,8.00
2022-08-18T00:13:05.805Z,8.00
2022-08-18T00:14:08.957Z,7.14
2022-08-18T00:15:12.068Z,6.43
2022-08-18T00:16:15.133Z,7.17
2022-08-18T00:17:18.252Z,7.17
2022-08-18T00:18:21.306Z,7.57
2022-08-18T00:19:24.749Z,6.57
2022-08-18T00:20:28.795Z,7.00
2022-08-18T00:21:32.171Z,7.83
2022-08-18T00:22:35.354Z,7.71
2022-08-18T00:23:38.392Z,6.00
2022-08-18T00:24:48.521Z,6.43
2022-08-18T00:25:45.726Z,6.62
2022-08-18T00:26:48.915Z,6.14
2022-08-18T00:27:52.591Z,5.86
2022-08-18T00:28:55.777Z,6.14
2022-08-18T00:29:58.865Z,5.00
2022-08-18T00:31:02.142Z,4.33
2022-08-18T00:32:05.528Z,2.86
2022-08-18T00:33:09.160Z,4.00
2022-08-18T00:34:12.191Z,4.67
2022-08-18T00:35:15.590Z,4.00
2022-08-18T00:36:18.885Z,3.57
2022-08-18T00:37:22.063Z,3.00
2022-08-18T00:38:25.691Z,3.00
2022-08-18T00:39:29.151Z,3.43
2022-08-18T00:40:37.655Z,4.00
2022-08-18T00:41:37.848Z,3.50
2022-08-18T00:42:41.030Z,2.43
2022-08-18T00:43:44.213Z,2.00
2022-08-18T00:44:47.502Z,2.00
2022-08-18T00:45:50.693Z,2.33
2022-08-18T00:46:53.860Z,2.43
2022-08-18T00:47:57.254Z,3.00
2022-08-18T00:49:00.718Z,3.00
2022-08-18T00:50:04.034Z,2.67
2022-08-18T00:51:07.311Z,2.00
2022-08-18T00:52:10.703Z,2.43
2022-08-18T00:53:14.104Z,3.00
2022-08-18T00:54:17.124Z,3.00
2022-08-18T00:55:20.442Z,3.00
2022-08-18T00:56:24.952Z,2.50
2022-08-18T00:57:28.444Z,2.43
2022-08-18T00:58:31.932Z,3.43
2022-08-18T00:59:36.354Z,4.00
2022-08-18T01:00:39.895Z,3.57
2022-08-18T01:01:43.014Z,3.00
2022-08-18T01:02:46.310Z,3.43
2022-08-18T01:03:49.582Z,4.00
2022-08-18T01:04:52.868Z,3.57
2022-08-18T01:05:56.055Z,2.86
2022-08-18T01:06:59.433Z,2.43
2022-08-18T01:08:02.525Z,3.00
2022-08-18T01:09:05.705Z,3.00
2022-08-18T01:10:09.910Z,3.00
2022-08-18T01:11:13.191Z,3.33
2022-08-18T01:12:45.218Z,3.33
2022-08-18T01:13:20.588Z,2.50
2022-08-18T01:14:23.669Z,3.33
2022-08-18T01:15:29.089Z,3.57
2022-08-18T01:16:31.155Z,2.75
2022-08-18T01:17:34.427Z,2.43
2022-08-18T01:18:37.633Z,3.43
2022-08-18T01:19:40.688Z,3.57
2022-08-18T01:20:43.883Z,3.00
2022-08-18T01:21:47.013Z,3.50
2022-08-18T01:22:50.129Z,3.00
2022-08-18T01:23:53.263Z,3.43
2022-08-18T01:24:56.294Z,4.00
2022-08-18T01:25:59.562Z,3.67
2022-08-18T01:27:02.966Z,2.67
2022-08-18T01:28:06.348Z,2.43
2022-08-18T01:29:09.739Z,2.57
2022-08-18T01:30:13.119Z,2.00
2022-08-18T01:31:16.409Z,2.00
2022-08-18T01:32:19.761Z,2.00
2022-08-18T01:33:22.980Z,2.00
2022-08-18T01:34:27.615Z,2.00
2022-08-18T01:35:38.256Z,2.00
2022-08-18T01:36:35.588Z,1.62
2022-08-18T01:37:38.892Z,1.43
2022-08-18T01:38:42.362Z,2.14
2022-08-18T01:41:12.862Z,3.14
2022-08-18T01:41:21.150Z,3.43
2022-08-18T01:41:54.713Z,2.12
2022-08-18T01:42:57.873Z,2.57
2022-08-18T01:44:01.240Z,2.29
2022-08-18T01:45:04.736Z,2.57
2022-08-18T01:46:08.220Z,1.57
2022-08-18T01:47:11.630Z,1.43
2022-08-18T01:48:14.996Z,1.00
2022-08-18T01:49:18.481Z,1.43
2022-08-18T01:50:21.971Z,1.43
2022-08-18T01:51:39.631Z,1.71
2022-08-18T01:52:29.874Z,2.25
2022-08-18T01:53:33.360Z,2.29
2022-08-18T01:54:36.762Z,1.00
2022-08-18T01:55:40.136Z,0.86
2022-08-18T01:56:43.632Z,2.00
2022-08-18T01:57:46.900Z,1.29
2022-08-18T01:58:50.099Z,1.86
2022-08-18T01:59:54.382Z,1.50
2022-08-18T02:00:57.678Z,0.67
2022-08-18T02:02:01.006Z,0.86
2022-08-18T02:03:05.174Z,2.12
2022-08-18T02:04:33.977Z,1.00
2022-08-18T02:05:13.080Z,1.00
2022-08-18T02:06:16.559Z,2.43
2022-08-18T02:07:19.855Z,2.57
2022-08-18T02:08:24.020Z,2.43
2022-08-18T02:09:28.365Z,1.87
2022-08-18T02:10:32.549Z,2.12
2022-08-18T02:11:35.949Z,3.00
2022-08-18T02:12:39.191Z,3.14
2022-08-18T02:13:42.207Z,2.14
2022-08-18T02:14:45.597Z,1.57
2022-08-18T02:15:49.598Z,1.25
2022-08-18T02:16:52.697Z,1.14
2022-08-18T02:17:56.884Z,1.75
2022-08-18T02:19:00.167Z,2.00
2022-08-18T02:20:03.563Z,2.00
2022-08-18T02:21:09.117Z,2.00
2022-08-18T02:22:12.148Z,1.00
2022-08-18T02:23:15.564Z,0.71
2022-08-18T02:24:19.965Z,1.14
2022-08-18T02:25:23.368Z,2.00
2022-08-18T02:26:26.649Z,1.67
2022-08-18T02:27:30.033Z,1.00
2022-08-18T02:28:33.826Z,0.57
2022-08-18T02:29:37.211Z,1.00
2022-08-18T02:30:40.558Z,1.00
2022-08-18T02:31:43.570Z,0.00
2022-08-18T02:32:46.854Z,1.00
2022-08-18T02:33:51.913Z,2.14
2022-08-18T02:34:54.417Z,0.50
2022-08-18T02:35:57.424Z,0.43
2022-08-18T02:37:00.478Z,1.00
2022-08-18T02:38:03.821Z,0.67
2022-08-18T02:39:06.938Z,1.00
2022-08-18T02:40:10.125Z,0.67
2022-08-18T02:41:14.356Z,0.50
2022-08-18T02:42:17.438Z,1.43
2022-08-18T02:43:20.620Z,2.00
2022-08-18T02:44:23.800Z,1.17
2022-08-18T02:45:26.984Z,1.33
2022-08-18T02:46:31.233Z,0.17
2022-08-18T02:47:34.375Z,0.50
2022-08-18T02:48:37.346Z,0.83
2022-08-18T02:49:40.486Z,0.33
2022-08-18T02:50:43.504Z,0.57
2022-08-18T02:51:46.689Z,0.43
2022-08-18T02:52:49.767Z,0.57
2022-08-18T02:53:52.861Z,0.43
2022-08-18T02:54:57.159Z,0.50
2022-08-18T02:56:00.437Z,0.00
2022-08-18T02:57:03.615Z,0.43
2022-08-18T02:58:06.918Z,1.00
2022-08-18T02:59:10.090Z,0.57
2022-08-18T03:00:13.471Z,0.00
2022-08-18T03:01:16.694Z,0.00
2022-08-18T03:02:19.940Z,0.00
2022-08-18T03:03:23.031Z,0.00
2022-08-18T03:04:29.241Z,0.00
2022-08-18T03:05:30.815Z,0.00
2022-08-18T03:06:33.896Z,0.00
2022-08-18T03:07:37.088Z,0.00
2022-08-18T03:08:41.281Z,0.00
2022-08-18T03:09:44.360Z,0.00
2022-08-18T03:10:47.566Z,0.00
2022-08-18T03:11:50.635Z,0.00
2022-08-18T03:12:53.703Z,0.00
2022-08-18T03:13:56.784Z,0.00
2022-08-18T03:14:59.965Z,0.00
2022-08-18T03:16:03.042Z,0.00
2022-08-18T03:17:06.225Z,0.00
2022-08-18T03:18:09.301Z,0.43
2022-08-18T03:19:12.485Z,0.00
2022-08-18T03:20:15.666Z,0.17
2022-08-18T03:21:18.749Z,1.00
2022-08-18T03:22:28.063Z,0.00
2022-08-18T03:23:30.378Z,0.00
2022-08-18T03:24:30.646Z,0.50
2022-08-18T03:25:34.364Z,0.50
2022-08-18T03:26:37.624Z,1.00
2022-08-18T03:27:40.705Z,1.00
2022-08-18T03:28:43.901Z,2.83
2022-08-18T03:29:47.069Z,3.83
2022-08-18T03:30:50.046Z,3.33
2022-08-18T03:31:53.225Z,4.33
2022-08-18T03:32:56.423Z,6.00
2022-08-18T03:33:59.823Z,6.00
2022-08-18T03:35:02.985Z,8.14
2022-08-18T03:36:06.263Z,10.71
2022-08-18T03:37:09.360Z,10.17
2022-08-18T03:38:12.312Z,11.33
2022-08-18T03:39:15.501Z,10.43
2022-08-18T03:40:18.940Z,10.86
2022-08-18T03:41:43.605Z,10.86
2022-08-18T03:42:26.578Z,11.63
2022-08-18T03:43:50.601Z,12.86
2022-08-18T03:44:34.290Z,13.38
2022-08-18T03:45:37.479Z,12.00
2022-08-18T03:46:40.749Z,11.00
2022-08-18T03:47:43.825Z,10.14
2022-08-18T03:48:47.222Z,7.50
2022-08-18T03:49:50.389Z,7.29
2022-08-18T03:50:53.673Z,8.17
2022-08-18T03:51:56.783Z,7.83
2022-08-18T03:52:59.840Z,6.67
2022-08-18T03:54:03.118Z,5.00
2022-08-18T03:55:06.532Z,4.00
2022-08-18T03:56:10.010Z,4.43
2022-08-18T03:57:13.479Z,5.00
2022-08-18T03:58:16.975Z,4.29
2022-08-18T03:59:20.158Z,3.14
2022-08-18T04:00:23.338Z,3.43
2022-08-18T04:01:27.147Z,3.57
2022-08-18T04:02:30.729Z,2.75
2022-08-18T04:03:34.008Z,3.43
2022-08-18T04:04:37.183Z,3.86
2022-08-18T04:05:41.594Z,3.87
2022-08-18T04:06:44.882Z,4.50
2022-08-18T04:07:48.126Z,4.33
2022-08-18T04:08:51.491Z,1.83
2022-08-18T04:09:54.553Z,1.50
2022-08-18T04:10:57.713Z,2.00
2022-08-18T04:12:00.790Z,2.43
2022-08-18T04:13:04.282Z,2.57
2022-08-18T04:14:07.759Z,1.86
2022-08-18T04:15:11.062Z,2.00
2022-08-18T04:16:14.303Z,3.43
2022-08-18T04:17:17.533Z,3.17
2022-08-18T04:18:20.817Z,2.29
2022-08-18T04:19:27.283Z,2.00
2022-08-18T04:20:28.504Z,2.50
2022-08-18T04:21:31.987Z,2.57
2022-08-18T04:22:35.486Z,1.57
2022-08-18T04:23:44.037Z,0.14
2022-08-18T04:24:43.485Z,1.00
2022-08-18T04:25:47.644Z,1.00
2022-08-18T04:26:50.971Z,1.00
2022-08-18T04:27:54.003Z,1.00
2022-08-18T04:28:57.130Z,1.33
2022-08-18T04:30:00.236Z,1.33
2022-08-18T04:31:03.182Z,0.50
2022-08-18T04:32:07.494Z,0.50
2022-08-18T04:33:10.550Z,0.14
2022-08-18T04:34:13.672Z,1.00
2022-08-18T04:35:16.752Z,0.57
2022-08-18T04:36:20.867Z,0.00
2022-08-18T04:37:23.907Z,0.50
2022-08-18T04:38:27.216Z,1.00
2022-08-18T04:39:30.448Z,1.14
2022-08-18T04:40:33.575Z,1.86
2022-08-18T04:41:36.741Z,1.50
2022-08-18T04:42:40.208Z,1.50
2022-08-18T04:43:44.053Z,0.00
2022-08-18T04:44:47.218Z,0.67
2022-08-18T04:45:50.393Z,1.00
2022-08-18T04:46:53.470Z,1.00
2022-08-18T04:47:56.774Z,1.14
2022-08-18T04:49:00.046Z,2.00
2022-08-18T04:50:03.528Z,1.50
2022-08-18T04:51:06.808Z,1.43
2022-08-18T04:52:36.565Z,2.50
2022-08-18T04:53:14.713Z,1.50
2022-08-18T04:54:18.105Z,1.00
2022-08-18T04:55:21.407Z,0.71
2022-08-18T04:56:24.674Z,1.43
2022-08-18T04:57:28.053Z,1.14
2022-08-18T04:58:31.542Z,1.43
2022-08-18T04:59:35.045Z,2.00
2022-08-18T05:00:38.323Z,1.00
2022-08-18T05:01:41.582Z,1.29
2022-08-18T05:02:44.906Z,1.00
2022-08-18T05:03:50.153Z,1.86
2022-08-18T05:04:52.378Z,1.37
2022-08-18T05:05:55.467Z,1.00
2022-08-18T05:06:58.552Z,1.33
2022-08-18T05:08:01.815Z,0.43
2022-08-18T05:09:05.215Z,1.43
2022-08-18T05:10:08.608Z,2.00
2022-08-18T05:11:12.079Z,1.29
2022-08-18T05:12:15.496Z,1.00
2022-08-18T05:13:18.970Z,0.00
2022-08-18T05:14:22.407Z,1.29
2022-08-18T05:15:25.636Z,1.14
2022-08-18T05:16:29.015Z,0.43
2022-08-18T05:17:32.307Z,1.00
2022-08-18T05:18:35.784Z,1.29
2022-08-18T05:19:42.250Z,0.86
2022-08-18T05:20:43.763Z,0.50
2022-08-18T05:21:50.825Z,0.62
2022-08-18T05:22:52.098Z,0.25
2022-08-18T05:23:55.486Z,0.43
2022-08-18T05:24:58.458Z,0.71
2022-08-18T05:26:01.632Z,0.14
2022-08-18T05:27:04.743Z,0.43
2022-08-18T05:28:07.700Z,0.57
2022-08-18T05:29:18.125Z,0.67
2022-08-18T05:30:15.657Z,0.00
2022-08-18T05:31:19.025Z,0.00
2022-08-18T05:32:41.044Z,0.00
2022-08-18T05:33:26.783Z,0.00
2022-08-18T05:34:30.182Z,0.00
2022-08-18T05:35:33.567Z,0.00
2022-08-18T05:36:37.046Z,0.00
2022-08-18T05:37:40.431Z,0.43
2022-08-18T05:38:43.844Z,0.86
2022-08-18T05:39:46.869Z,1.00
2022-08-18T05:40:50.282Z,1.00
2022-08-18T05:41:53.465Z,0.57
2022-08-18T05:42:57.051Z,0.71
2022-08-18T05:44:00.147Z,0.00
2022-08-18T05:45:03.111Z,0.33
2022-08-18T05:46:06.403Z,0.83
2022-08-18T05:47:09.603Z,1.00
2022-08-18T05:48:12.974Z,1.00
2022-08-18T05:49:16.462Z,1.00
2022-08-18T05:50:20.046Z,0.57
2022-08-18T05:51:23.224Z,0.43
2022-08-18T05:52:26.522Z,1.00
2022-08-18T05:53:29.908Z,1.00
2022-08-18T05:54:34.284Z,2.00
2022-08-18T05:55:37.564Z,2.14
2022-08-18T05:56:40.783Z,1.43
2022-08-18T05:57:43.961Z,2.00
2022-08-18T05:58:47.550Z,1.14
2022-08-18T05:59:50.529Z,1.14
2022-08-18T06:00:57.479Z,1.14
2022-08-18T06:01:58.221Z,0.88
2022-08-18T06:03:01.411Z,1.00
2022-08-18T06:04:04.592Z,1.00
2022-08-18T06:05:07.979Z,1.00
2022-08-18T06:06:11.257Z,1.00
2022-08-18T06:07:15.872Z,0.75
2022-08-18T06:08:19.265Z,1.00
2022-08-18T06:09:22.648Z,1.00
2022-08-18T06:10:25.930Z,1.43
2022-08-18T06:11:28.964Z,1.57
2022-08-18T06:12:31.990Z,0.00
2022-08-18T06:13:35.085Z,0.00
2022-08-18T06:14:38.348Z,1.00
2022-08-18T06:15:41.634Z,1.14
2022-08-18T06:16:45.689Z,1.00
2022-08-18T06:17:48.710Z,1.00
2022-08-18T06:18:51.690Z,1.86
2022-08-18T06:19:54.972Z,1.67
2022-08-18T06:20:57.947Z,0.83
2022-08-18T06:22:01.146Z,0.33
2022-08-18T06:23:04.312Z,1.00
2022-08-18T06:24:07.505Z,1.43
2022-08-18T06:25:10.650Z,2.00
2022-08-18T06:26:13.670Z,1.57
2022-08-18T06:27:16.858Z,1.00
2022-08-18T06:28:19.872Z,1.00
2022-08-18T06:29:22.897Z,1.17
2022-08-18T06:30:26.030Z,1.57
2022-08-18T06:31:29.545Z,1.00
2022-08-18T06:32:32.860Z,1.43
2022-08-18T06:33:36.133Z,1.86
2022-08-18T06:34:39.427Z,2.00
2022-08-18T06:35:42.452Z,2.00
2022-08-18T06:36:45.463Z,1.57
2022-08-18T06:37:48.595Z,1.00
2022-08-18T06:38:51.735Z,0.67
2022-08-18T06:39:54.969Z,2.00
2022-08-18T06:40:57.993Z,1.43
2022-08-18T06:42:01.285Z,1.00
2022-08-18T06:43:04.320Z,1.00
2022-08-18T06:44:07.334Z,1.00
2022-08-18T06:45:10.534Z,1.00
2022-08-18T06:46:13.603Z,1.00
2022-08-18T06:47:16.688Z,1.00
2022-08-18T06:48:19.652Z,1.29
2022-08-18T06:49:22.844Z,1.33
2022-08-18T06:50:26.279Z,2.00
2022-08-18T06:51:29.513Z,1.33
2022-08-18T06:52:32.646Z,1.67
2022-08-18T06:53:35.678Z,1.00
2022-08-18T06:54:38.858Z,1.29
2022-08-18T06:55:43.052Z,1.50
2022-08-18T06:56:46.025Z,1.00
2022-08-18T06:57:49.007Z,1.00
2022-08-18T06:58:53.285Z,1.33
2022-08-18T06:59:56.205Z,2.00
2022-08-18T07:00:59.355Z,2.00
2022-08-18T07:02:02.563Z,2.29
2022-08-18T07:03:05.653Z,1.71
2022-08-18T07:04:08.916Z,2.00
2022-08-18T07:05:12.204Z,1.29
2022-08-18T07:06:15.407Z,1.00
2022-08-18T07:07:18.581Z,1.33
2022-08-18T07:08:21.739Z,1.33
2022-08-18T07:09:24.938Z,1.00
2022-08-18T07:10:29.054Z,1.86
2022-08-18T07:11:32.329Z,2.00
2022-08-18T07:12:35.823Z,1.71
2022-08-18T07:13:39.119Z,1.71
2022-08-18T07:14:43.614Z,2.22
2022-08-18T07:15:46.689Z,2.00
2022-08-18T07:17:04.866Z,2.00
2022-08-18T07:17:54.731Z,2.37
2022-08-18T07:18:57.852Z,2.00
2022-08-18T07:20:00.921Z,2.00
2022-08-18T07:21:03.926Z,1.57
2022-08-18T07:22:07.324Z,2.00
2022-08-18T07:23:10.794Z,2.00
2022-08-18T07:24:24.989Z,2.43
2022-08-18T07:25:18.496Z,2.00
2022-08-18T07:26:21.789Z,1.00
2022-08-18T07:27:25.091Z,1.43
2022-08-18T07:28:28.644Z,2.29
2022-08-18T07:29:32.165Z,2.86
2022-08-18T07:30:36.755Z,4.00
2022-08-18T07:31:40.083Z,3.50
2022-08-18T07:32:43.116Z,3.86
2022-08-18T07:33:46.056Z,5.43
2022-08-18T07:34:49.177Z,6.00
2022-08-18T07:35:53.475Z,5.00
2022-08-18T07:36:56.441Z,4.00
2022-08-18T07:37:59.324Z,4.00
2022-08-18T07:39:02.858Z,4.33
2022-08-18T07:40:06.023Z,5.00
2022-08-18T07:41:09.113Z,4.67
2022-08-18T07:42:12.182Z,4.00
2022-08-18T07:43:16.490Z,3.50
2022-08-18T07:44:19.670Z,3.00
2022-08-18T07:45:23.969Z,3.00
2022-08-18T07:46:27.045Z,3.12
2022-08-18T07:47:30.235Z,3.43
2022-08-18T07:48:40.401Z,4.00
2022-08-18T07:49:37.404Z,3.00
2022-08-18T07:50:58.184Z,2.00
2022-08-18T07:51:45.731Z,2.00
2022-08-18T07:52:49.824Z,2.00
2022-08-18T07:53:54.635Z,2.33
2022-08-18T07:54:56.872Z,3.50
2022-08-18T07:55:59.876Z,3.57
2022-08-18T07:57:02.966Z,3.33
2022-08-18T07:58:07.276Z,2.67
2022-08-18T07:59:10.573Z,2.00
2022-08-18T08:00:18.714Z,2.00
2022-08-18T08:01:18.363Z,2.00
2022-08-18T08:02:21.639Z,2.00
2022-08-18T08:03:25.018Z,3.00
2022-08-18T08:04:28.288Z,2.57
2022-08-18T08:05:31.570Z,2.00
2022-08-18T08:06:34.775Z,2.00
2022-08-18T08:07:37.743Z,2.43
2022-08-18T08:08:41.130Z,2.67
2022-08-18T08:09:48.351Z,2.00
2022-08-18T08:10:48.959Z,2.00
2022-08-18T08:11:52.005Z,2.00
2022-08-18T08:13:06.091Z,2.00
2022-08-18T08:13:59.514Z,2.00
2022-08-18T08:15:02.479Z,2.00
2022-08-18T08:16:05.654Z,2.00
2022-08-18T08:17:08.963Z,2.00
2022-08-18T08:18:12.324Z,2.00
2022-08-18T08:19:15.732Z,2.00
2022-08-18T08:20:19.108Z,2.00
2022-08-18T08:21:22.381Z,2.00
2022-08-18T08:22:25.794Z,1.14
2022-08-18T08:23:29.062Z,2.43
2022-08-18T08:24:32.213Z,3.00
2022-08-18T08:25:46.212Z,2.86
2022-08-18T08:26:39.936Z,2.50
2022-08-18T08:27:43.334Z,2.14
2022-08-18T08:28:46.713Z,2.00
2022-08-18T08:29:49.786Z,2.17
2022-08-18T08:30:53.278Z,2.83
2022-08-18T08:31:56.467Z,2.57
2022-08-18T08:32:59.655Z,3.33
2022-08-18T08:34:05.768Z,3.14
2022-08-18T08:35:07.241Z,2.62
2022-08-18T08:36:10.623Z,2.86
2022-08-18T08:37:13.924Z,2.00
2022-08-18T08:38:40.294Z,2.00
2022-08-18T08:39:21.708Z,2.67
2022-08-18T08:40:25.084Z,3.29
2022-08-18T08:41:28.488Z,3.14
2022-08-18T08:42:34.522Z,2.57
2022-08-18T08:43:36.476Z,3.00
2022-08-18T08:44:58.081Z,2.71
2022-08-18T08:45:44.231Z,2.00
2022-08-18T08:46:47.566Z,2.43
2022-08-18T08:47:50.896Z,3.00
2022-08-18T08:48:54.228Z,2.57
2022-08-18T08:50:00.736Z,2.43
2022-08-18T08:51:01.538Z,3.00
2022-08-18T08:52:04.598Z,2.57
2022-08-18T08:53:07.791Z,2.00
2022-08-18T08:54:11.067Z,2.00
2022-08-18T08:55:14.148Z,2.00
2022-08-18T08:56:17.112Z,2.71
2022-08-18T08:57:20.282Z,3.57
2022-08-18T08:58:24.835Z,3.71
2022-08-18T08:59:27.585Z,2.00
2022-08-18T09:00:30.669Z,2.33
2022-08-18T09:01:33.786Z,3.33
2022-08-18T09:02:47.910Z,4.00
2022-08-18T09:03:40.998Z,3.50
2022-08-18T09:05:07.639Z,3.00
2022-08-18T09:05:50.116Z,2.50
2022-08-18T09:06:52.425Z,2.00
2022-08-18T09:07:55.499Z,2.00
2022-08-18T09:08:58.788Z,2.00
2022-08-18T09:10:01.717Z,2.00
2022-08-18T09:11:05.974Z,2.00
2022-08-18T09:12:09.166Z,2.00
2022-08-18T09:13:12.327Z,1.67
2022-08-18T09:14:15.590Z,1.57
2022-08-18T09:15:18.920Z,1.00
2022-08-18T09:16:22.144Z,1.43
2022-08-18T09:17:33.964Z,2.00
2022-08-18T09:18:29.894Z,2.00
2022-08-18T09:19:33.132Z,1.57
2022-08-18T09:20:36.361Z,1.00
2022-08-18T09:21:39.730Z,1.86
2022-08-18T09:22:43.215Z,2.57
2022-08-18T09:23:46.397Z,1.57
2022-08-18T09:24:51.065Z,1.33
2022-08-18T09:25:53.857Z,2.00
2022-08-18T09:26:57.087Z,2.00
2022-08-18T09:28:15.053Z,2.00
2022-08-18T09:29:04.455Z,2.00
2022-08-18T09:30:07.542Z,2.43
2022-08-18T09:31:12.051Z,3.00
2022-08-18T09:32:15.439Z,3.00
2022-08-18T09:33:20.056Z,2.50
2022-08-18T09:34:24.401Z,2.00
2022-08-18T09:35:27.861Z,2.00
2022-08-18T09:36:31.756Z,2.00
2022-08-18T09:37:35.415Z,2.00
2022-08-18T09:38:38.627Z,2.00
2022-08-18T09:39:42.395Z,2.00
2022-08-18T09:41:02.716Z,1.57
2022-08-18T09:41:49.911Z,1.37
2022-08-18T09:42:53.196Z,1.57
2022-08-18T09:43:57.362Z,1.50
2022-08-18T09:45:01.550Z,1.50
2022-08-18T09:46:04.693Z,1.43
2022-08-18T09:47:07.964Z,2.00
2022-08-18T09:48:11.266Z,2.00
2022-08-18T09:49:14.746Z,2.00
2022-08-18T09:50:26.617Z,1.50
2022-08-18T09:51:23.599Z,1.00
2022-08-18T09:52:27.052Z,1.86
2022-08-18T09:53:30.718Z,1.62
2022-08-18T09:54:34.033Z,1.00
2022-08-18T09:55:37.428Z,1.00
2022-08-18T09:56:53.576Z,1.00
2022-08-18T09:57:45.524Z,2.00
2022-08-18T09:58:49.991Z,1.57
2022-08-18T09:59:53.115Z,1.50
2022-08-18T10:00:56.704Z,2.00
2022-08-18T10:01:59.887Z,2.00
2022-08-18T10:03:03.077Z,2.00
2022-08-18T10:04:06.263Z,1.57
2022-08-18T10:05:10.558Z,1.12
2022-08-18T10:06:13.950Z,1.00
2022-08-18T10:07:17.346Z,1.29
2022-08-18T10:08:21.237Z,1.43
2022-08-18T10:09:35.886Z,1.50
2022-08-18T10:11:01.480Z,1.00
2022-08-18T10:11:34.025Z,1.00
2022-08-18T10:12:37.431Z,1.00
2022-08-18T10:13:48.304Z,0.88
2022-08-18T10:14:45.715Z,0.50
2022-08-18T10:15:48.709Z,0.33
2022-08-18T10:17:15.710Z,0.50
2022-08-18T10:17:57.005Z,0.50
2022-08-18T10:19:00.223Z,1.00
2022-08-18T10:20:03.160Z,1.43
2022-08-18T10:21:07.308Z,1.50
2022-08-18T10:22:11.419Z,1.50
2022-08-18T10:23:14.496Z,1.67
2022-08-18T10:24:35.949Z,0.57
2022-08-18T10:25:23.284Z,0.00
2022-08-18T10:26:26.281Z,0.00
2022-08-18T10:27:29.373Z,0.00
2022-08-18T10:28:32.349Z,0.43
2022-08-18T10:29:35.418Z,0.67
2022-08-18T10:30:57.110Z,0.00
2022-08-18T10:31:42.553Z,0.00
2022-08-18T10:32:53.957Z,0.00
2022-08-18T10:33:49.685Z,0.00
2022-08-18T10:34:53.792Z,0.13
2022-08-18T10:35:56.762Z,0.67
2022-08-18T10:37:00.963Z,0.50
2022-08-18T10:38:04.143Z,0.00
2022-08-18T10:39:07.251Z,0.00
2022-08-18T10:40:13.041Z,0.00
2022-08-18T10:41:15.403Z,0.00
2022-08-18T10:42:18.824Z,0.00
2022-08-18T10:44:30.939Z,0.00
2022-08-18T10:45:30.214Z,0.00
2022-08-18T10:47:37.351Z,0.00
2022-08-18T10:48:40.354Z,0.00
2022-08-18T10:49:46.826Z,0.00
2022-08-18T10:50:48.782Z,0.00
2022-08-18T10:52:00.170Z,0.00
2022-08-18T10:53:17.006Z,0.13
2022-08-18T10:54:00.687Z,0.50
2022-08-18T10:55:06.201Z,0.00
2022-08-18T10:56:09.100Z,0.00
2022-08-18T10:57:12.446Z,0.00
2022-08-18T10:58:16.583Z,0.00
2022-08-18T10:59:19.570Z,0.00
2022-08-18T11:00:23.796Z,0.00
2022-08-18T11:01:30.799Z,0.00
2022-08-18T11:02:32.694Z,0.00
2022-08-18T11:03:50.735Z,0.00
2022-08-18T11:04:41.105Z,0.00
2022-08-18T11:05:45.300Z,0.00
2022-08-18T11:06:48.706Z,0.00
2022-08-18T11:07:52.227Z,0.43
2022-08-18T11:08:57.734Z,0.57
2022-08-18T11:10:28.263Z,0.00
2022-08-18T11:11:37.913Z,0.00
2022-08-18T11:12:08.711Z,0.00
2022-08-18T11:13:11.987Z,0.00
2022-08-18T11:14:14.965Z,0.00
2022-08-18T11:15:22.749Z,0.00
2022-08-18T11:16:23.018Z,0.00
2022-08-18T11:17:27.167Z,0.00
2022-08-18T11:18:30.410Z,0.00
2022-08-18T11:19:33.426Z,0.00
2022-08-18T11:20:36.403Z,0.00
2022-08-18T11:21:42.620Z,0.00
2022-08-18T11:22:43.898Z,0.00
2022-08-18T11:23:47.994Z,0.50
2022-08-18T11:24:51.196Z,0.00
2022-08-18T11:25:54.579Z,0.00
2022-08-18T11:26:58.641Z,0.00
2022-08-18T11:28:01.813Z,0.00
2022-08-18T11:29:04.914Z,0.00
2022-08-18T11:30:08.941Z,0.00
2022-08-18T11:31:12.938Z,0.00
2022-08-18T11:32:17.964Z,0.00
2022-08-18T11:34:25.047Z,0.00
2022-08-18T11:35:28.122Z,0.00
2022-08-18T11:36:31.222Z,0.00
2022-08-18T11:37:51.508Z,0.00
2022-08-18T11:38:39.329Z,0.00
2022-08-18T11:39:42.784Z,0.00
2022-08-18T11:41:10.565Z,0.00
2022-08-18T11:41:50.368Z,0.00
2022-08-18T11:42:53.845Z,0.00
2022-08-18T11:43:57.054Z,0.00
2022-08-18T11:45:00.044Z,0.00
2022-08-18T11:46:03.115Z,0.00
2022-08-18T11:47:06.318Z,0.00
2022-08-18T11:48:09.474Z,0.00
2022-08-18T11:49:13.285Z,0.00
2022-08-18T11:50:17.373Z,0.00
2022-08-18T11:51:23.477Z,0.00
2022-08-18T11:52:29.472Z,0.00
2022-08-18T11:53:28.788Z,0.00
2022-08-18T11:54:32.366Z,0.00
2022-08-18T11:55:36.664Z,0.00
2022-08-18T11:56:40.872Z,0.00
2022-08-18T11:57:46.873Z,0.00
2022-08-18T11:58:50.565Z,0.00
2022-08-18T12:00:00.247Z,0.00
2022-08-18T12:00:57.173Z,0.00
2022-08-18T12:02:00.944Z,0.00
2022-08-18T12:03:03.922Z,0.00
2022-08-18T12:04:08.162Z,0.00
2022-08-18T12:05:12.477Z,0.00
2022-08-18T12:06:19.524Z,0.00
2022-08-18T12:07:20.933Z,0.00
2022-08-18T12:08:54.660Z,0.43
2022-08-18T12:10:05.141Z,0.62
2022-08-18T12:10:32.239Z,1.00
2022-08-18T12:11:35.246Z,0.50
2022-08-18T12:12:38.323Z,0.43
2022-08-18T12:13:41.617Z,0.57
2022-08-18T12:14:45.730Z,0.00
2022-08-18T12:15:49.933Z,0.00
2022-08-18T12:16:54.128Z,0.00
2022-08-18T12:17:57.205Z,0.00
2022-08-18T12:19:01.024Z,0.00
2022-08-18T12:20:05.107Z,0.00
2022-08-18T12:21:09.317Z,0.00
2022-08-18T12:22:12.496Z,0.43
2022-08-18T12:23:15.577Z,0.57
2022-08-18T12:24:18.766Z,0.00
2022-08-18T12:26:39.083Z,0.00
2022-08-18T12:27:32.144Z,0.00
2022-08-18T12:28:35.389Z,0.00
2022-08-18T12:30:42.769Z,0.00
2022-08-18T12:31:48.699Z,0.00
2022-08-18T12:32:55.782Z,0.50
2022-08-18T12:34:00.040Z,1.00
2022-08-18T12:35:02.044Z,0.50
2022-08-18T12:36:04.262Z,0.00
2022-08-18T12:37:14.347Z,0.00
2022-08-18T12:38:12.802Z,0.00
2022-08-18T12:39:15.402Z,0.00
2022-08-18T12:40:18.611Z,0.00
2022-08-18T12:41:23.828Z,0.00
2022-08-18T12:42:26.577Z,0.00
2022-08-18T12:44:34.679Z,0.50
2022-08-18T12:45:38.144Z,0.00
2022-08-18T12:47:46.139Z,0.00
2022-08-18T12:48:49.400Z,0.00
2022-08-18T12:49:52.595Z,0.00
2022-08-18T12:50:59.607Z,0.00
2022-08-18T12:52:03.580Z,0.00
2022-08-18T12:53:05.495Z,0.00
2022-08-18T12:54:10.525Z,0.00
2022-08-18T12:55:21.461Z,0.00
2022-08-18T12:56:17.636Z,0.00
2022-08-18T12:57:33.357Z,0.00
2022-08-18T12:58:26.283Z,0.00
2022-08-18T12:59:32.555Z,0.00
2022-08-18T13:00:33.836Z,0.00
2022-08-18T13:01:37.104Z,0.00
2022-08-18T13:02:42.117Z,0.00
2022-08-18T13:03:45.476Z,0.00
2022-08-18T13:04:49.638Z,0.00
2022-08-18T13:05:53.671Z,0.00
2022-08-18T13:07:00.564Z,0.00
2022-08-18T13:08:00.866Z,0.00
2022-08-18T13:09:16.106Z,0.00
2022-08-18T13:10:09.116Z,0.00
2022-08-18T13:11:14.836Z,0.00
2022-08-18T13:12:17.674Z,0.00
2022-08-18T13:13:20.723Z,0.00
2022-08-18T13:14:25.386Z,0.00
2022-08-18T13:15:29.166Z,0.00
2022-08-18T13:16:53.514Z,0.00
2022-08-18T13:17:37.440Z,0.00
2022-08-18T13:18:41.637Z,0.00
2022-08-18T13:19:45.343Z,0.00
2022-08-18T13:20:58.575Z,0.00
2022-08-18T13:22:01.879Z,0.00
2022-08-18T13:23:06.038Z,0.00
2022-08-18T13:24:10.285Z,0.00
2022-08-18T13:25:32.352Z,0.00
2022-08-18T13:26:18.710Z,0.00
2022-08-18T13:27:23.274Z,0.00
2022-08-18T13:28:26.101Z,0.00
2022-08-18T13:29:30.297Z,0.00
2022-08-18T13:30:35.420Z,0.00
2022-08-18T13:31:37.837Z,0.00
2022-08-18T13:32:59.346Z,0.00
2022-08-18T13:33:56.535Z,0.00
2022-08-18T13:34:49.928Z,0.00
2022-08-18T13:35:54.503Z,0.00
2022-08-18T13:36:57.489Z,0.00
2022-08-18T13:38:01.255Z,0.00
2022-08-18T13:39:05.261Z,0.00
2022-08-18T13:40:09.807Z,0.00
2022-08-18T13:41:15.791Z,0.00
2022-08-18T13:42:26.392Z,0.00
2022-08-18T13:43:23.570Z,0.00
2022-08-18T13:44:27.269Z,0.00
2022-08-18T13:45:30.363Z,0.00
2022-08-18T13:46:34.905Z,0.00
2022-08-18T13:47:38.526Z,0.00
2022-08-18T13:48:41.972Z,0.00
2022-08-18T13:49:58.024Z,0.00
2022-08-18T13:50:52.763Z,0.00
2022-08-18T13:51:54.294Z,0.00
2022-08-18T13:52:58.433Z,0.00
2022-08-18T13:54:29.013Z,0.00
2022-08-18T13:55:08.363Z,0.00
2022-08-18T13:56:10.402Z,0.00
2022-08-18T13:57:14.808Z,0.00
2022-08-18T13:58:20.812Z,0.00
2022-08-18T13:59:23.841Z,0.00
2022-08-18T14:00:30.775Z,0.00
2022-08-18T14:01:52.494Z,0.00
2022-08-18T14:02:36.539Z,0.00
2022-08-18T14:03:46.813Z,0.00
2022-08-18T14:04:44.482Z,0.00
2022-08-18T14:05:51.489Z,0.00
2022-08-18T14:06:57.133Z,0.00
2022-08-18T14:07:56.560Z,0.00
2022-08-18T14:09:00.471Z,0.00
2022-08-18T14:10:05.029Z,0.00
2022-08-18T14:11:08.153Z,0.00
2022-08-18T14:12:15.866Z,0.00
2022-08-18T14:13:20.770Z,0.00